Helton, KY (40840)

10:41 AM EDT on July 04, 2015 (GMT -0400)
RAWS | | Change Station
CLOSE
Current Station
Personal Weather Station
Location: Big Creek, KY
Elevation: 1464 ft
Nearby Weather Stations

Elev 1464 ft 37.14 °N, 83.58 °W | Updated 40 minutes ago

Overcast
Overcast
73 °F
Feels Like 73 °F
N
1
Wind Variable Wind from SE
Gusts 6.0 mph

Today
High -- | Low -- °F
--% Chance of Precip.
Yesterday
High -- | Low -- °F
Precip. -- in
6:19 AM 8:56 PM
Waning Gibbous, 92% visible
Pressure 30.03 in
Visibility 10.0 miles
Clouds Mostly Cloudy 2200 ft
Overcast 2700 ft
Dew Point 72 °F
Humidity 96%
Rainfall in
Snow Depth Not available.
UV 2 out of 12
Pollen .50 out of 12
Air Quality Not available.
Flu Activity Not available.
METAR K1A6 041435Z AUTO 00000KT 10SM BKN022 OVC027 22/20 A3003 RMK AO2 T02200203

More Conditions Fewer Conditions

Pressure 30.03 in
Visibility 10.0 miles
Clouds Mostly Cloudy 2200 ft
Overcast 2700 ft
Dew Point 72 °F
Humidity 96%
Rainfall in
Snow Depth Not available.
UV 2 out of 12
Pollen .50 out of 12
Air Quality Not available.
Flu Activity Not available.
METAR K1A6 041435Z AUTO 00000KT 10SM BKN022 OVC027 22/20 A3003 RMK AO2 T02200203

More Conditions Fewer Conditions

10-Day Weather Forecast

×

Almanac

Astronomy

Jul. 04, 2015 Rise Set
Actual Time
Civil Twilight
Nautical Twilight
Astronomical Twilight
Moon
Length of Visible Light
Length of Day
Tomorrow will be .
, % of the Moon is Illuminated

Today's Extremes

State Highs State Lows

Community

WunderPhotos

Upload Photos

1,834,982 photos uploaded!

WunderBlogs® & News

Nearby

Air Quality

  Air Quality AQ Index Pollutant
Not available.

Snow Depth

Station Depth Elevation

Earthquake Activity

City Distance Mag. Time & Date
Minimum magnitude displayed is 2.5.

Coastal Water Temperatures

Place Temperature

Stations

Nearby Weather Stations

Station Location Temp. Windchill Dew Point Humidity Wind Precip. Elev Updated Type